createdAt,value
2019-04-04T00:01:42.626Z,6.40
2019-04-04T00:04:12.115Z,5.23
2019-04-04T00:06:41.626Z,5.40
2019-04-04T00:09:11.421Z,6.12
2019-04-04T00:11:41.048Z,5.83
2019-04-04T00:14:12.649Z,5.70
2019-04-04T00:16:42.050Z,5.50
2019-04-04T00:19:11.589Z,4.67
2019-04-04T00:21:41.203Z,6.70
2019-04-04T00:24:10.920Z,5.07
2019-04-04T00:26:41.913Z,5.03
2019-04-04T00:29:11.772Z,5.90
2019-04-04T00:31:41.338Z,5.63
2019-04-04T00:34:13.582Z,6.97
2019-04-04T00:36:42.112Z,5.83
2019-04-04T00:39:11.721Z,5.70
2019-04-04T00:41:42.986Z,5.43
2019-04-04T00:44:13.339Z,5.47
2019-04-04T00:46:42.883Z,6.37
2019-04-04T00:49:12.454Z,7.63
2019-04-04T00:51:42.027Z,5.40
2019-04-04T00:54:12.079Z,6.20
2019-04-04T00:56:43.088Z,6.03
2019-04-04T00:59:13.174Z,7.03
2019-04-04T01:01:42.802Z,6.87
2019-04-04T01:04:12.383Z,5.63
2019-04-04T01:06:41.925Z,6.60
2019-04-04T01:09:13.443Z,6.70
2019-04-04T01:11:42.729Z,5.37
2019-04-04T01:14:12.291Z,5.20
2019-04-04T01:16:42.005Z,6.90
2019-04-04T01:19:11.579Z,5.83
2019-04-04T01:21:41.166Z,4.30
2019-04-04T01:24:10.868Z,7.13
2019-04-04T01:26:40.517Z,5.13
2019-04-04T01:29:10.983Z,4.87
2019-04-04T01:31:40.709Z,5.20
2019-04-04T01:34:10.315Z,5.53
2019-04-04T01:36:39.883Z,4.23
2019-04-04T01:39:09.870Z,6.47
2019-04-04T01:41:39.415Z,5.50
2019-04-04T01:44:11.191Z,6.07
2019-04-04T01:46:40.247Z,5.43
2019-04-04T01:49:10.803Z,5.50
2019-04-04T01:51:40.386Z,5.53
2019-04-04T01:54:09.921Z,6.73
2019-04-04T01:56:39.459Z,5.47
2019-04-04T01:59:12.067Z,5.10
2019-04-04T02:01:41.618Z,6.47
2019-04-04T02:04:11.133Z,5.27
2019-04-04T02:06:40.647Z,6.50
2019-04-04T02:09:10.221Z,6.43
2019-04-04T02:11:39.991Z,5.77
2019-04-04T02:14:09.914Z,6.40
2019-04-04T02:16:40.924Z,6.30
2019-04-04T02:19:10.466Z,5.47
2019-04-04T02:21:40.071Z,6.27
2019-04-04T02:24:09.606Z,5.37
2019-04-04T02:26:39.132Z,4.40
2019-04-04T02:29:10.716Z,4.30
2019-04-04T02:31:44.365Z,4.37
2019-04-04T02:34:13.931Z,4.67
2019-04-04T02:36:43.481Z,4.13
2019-04-04T02:39:15.562Z,4.10
2019-04-04T02:41:48.475Z,3.97
2019-04-04T02:44:16.596Z,3.90
2019-04-04T02:46:46.102Z,3.23
2019-04-04T02:49:15.612Z,4.70
2019-04-04T02:51:45.287Z,3.30
2019-04-04T02:54:14.950Z,3.50
2019-04-04T02:56:44.739Z,3.93
2019-04-04T02:59:20.136Z,4.40
2019-04-04T03:01:46.379Z,3.90
2019-04-04T03:04:15.934Z,3.67
2019-04-04T03:06:45.583Z,5.30
2019-04-04T03:09:15.293Z,6.10
2019-04-04T03:11:44.954Z,7.87
2019-04-04T03:14:14.691Z,7.90
2019-04-04T03:16:44.449Z,8.45
2019-04-04T03:19:14.102Z,7.27
2019-04-04T03:21:43.813Z,8.90
2019-04-04T03:24:13.392Z,7.60
2019-04-04T03:26:42.910Z,8.37
2019-04-04T03:29:12.602Z,8.60
2019-04-04T03:31:42.204Z,9.13
2019-04-04T03:34:13.002Z,9.93
2019-04-04T03:36:42.923Z,8.60
2019-04-04T03:39:12.549Z,7.53
2019-04-04T03:41:42.086Z,10.10
2019-04-04T03:44:11.709Z,9.27
2019-04-04T03:46:41.356Z,9.80
2019-04-04T03:49:11.093Z,10.13
2019-04-04T03:51:40.677Z,10.40
2019-04-04T03:54:14.179Z,9.20
2019-04-04T03:56:43.743Z,8.77
2019-04-04T03:59:13.350Z,10.30
2019-04-04T04:01:46.567Z,7.87
2019-04-04T04:04:14.344Z,6.87
2019-04-04T04:06:43.902Z,6.43
2019-04-04T04:09:13.508Z,9.77
2019-04-04T04:11:43.135Z,10.03
2019-04-04T04:14:12.682Z,9.10
2019-04-04T04:16:42.235Z,10.10
2019-04-04T04:19:11.802Z,8.87
2019-04-04T04:21:43.261Z,11.70
2019-04-04T04:24:12.643Z,11.53
2019-04-04T04:26:43.243Z,11.20
2019-04-04T04:29:12.808Z,10.65
2019-04-04T04:31:42.461Z,11.57
2019-04-04T04:34:12.075Z,14.33
2019-04-04T04:36:41.685Z,10.53
2019-04-04T04:39:11.256Z,10.80
2019-04-04T04:41:40.876Z,10.53
2019-04-04T04:44:10.629Z,8.80
2019-04-04T04:46:40.235Z,9.27
2019-04-04T04:49:09.827Z,9.63
2019-04-04T04:51:43.218Z,9.87
2019-04-04T04:54:11.733Z,10.77
2019-04-04T04:56:41.677Z,10.43
2019-04-04T04:59:13.345Z,9.63
2019-04-04T05:01:42.620Z,9.00
2019-04-04T05:04:12.186Z,8.33
2019-04-04T05:06:41.872Z,9.23
2019-04-04T05:09:13.671Z,9.87
2019-04-04T05:11:43.097Z,10.10
2019-04-04T05:14:12.695Z,10.85
2019-04-04T05:16:42.368Z,8.45
2019-04-04T05:19:11.998Z,10.40
2019-04-04T05:21:41.622Z,11.00
2019-04-04T05:24:11.155Z,10.20
2019-04-04T05:26:40.853Z,9.53
2019-04-04T05:29:13.056Z,9.23
2019-04-04T05:31:41.916Z,9.37
2019-04-04T05:34:11.461Z,9.03
2019-04-04T05:36:41.021Z,11.53
2019-04-04T05:39:10.682Z,10.97
2019-04-04T05:41:40.268Z,11.97
2019-04-04T05:44:10.342Z,11.30
2019-04-04T05:46:40.118Z,11.10
2019-04-04T05:49:09.665Z,10.60
2019-04-04T05:51:39.336Z,10.53
2019-04-04T05:54:08.897Z,10.87
2019-04-04T05:56:38.443Z,12.60
2019-04-04T05:59:09.040Z,10.17
2019-04-04T06:01:38.653Z,11.30
2019-04-04T06:04:08.284Z,10.38
2019-04-04T06:06:37.898Z,12.73
2019-04-04T06:09:08.309Z,10.90
2019-04-04T06:11:37.928Z,12.20
2019-04-04T06:14:07.559Z,12.25
2019-04-04T06:16:37.230Z,11.00
2019-04-04T06:19:07.210Z,14.73
2019-04-04T06:21:36.841Z,12.20
2019-04-04T06:24:06.495Z,11.50
2019-04-04T06:26:38.176Z,12.80
2019-04-04T06:29:07.690Z,10.45
2019-04-04T06:31:37.355Z,10.87
2019-04-04T06:34:10.087Z,11.10
2019-04-04T06:36:38.340Z,11.78
2019-04-04T06:39:08.673Z,10.30
2019-04-04T06:41:38.262Z,10.50
2019-04-04T06:44:08.008Z,12.23
2019-04-04T06:46:37.559Z,9.30
2019-04-04T06:49:07.305Z,10.67
2019-04-04T06:51:37.020Z,10.27
2019-04-04T06:54:06.648Z,11.90
2019-04-04T06:56:36.258Z,10.63
2019-04-04T06:59:05.813Z,11.13
2019-04-04T07:01:35.391Z,10.50
2019-04-04T07:04:06.027Z,10.07
2019-04-04T07:06:35.606Z,8.90
2019-04-04T07:09:07.543Z,10.30
2019-04-04T07:11:37.173Z,10.70
2019-04-04T07:14:06.756Z,11.33
2019-04-04T07:16:37.285Z,12.60
2019-04-04T07:19:08.130Z,12.53
2019-04-04T07:21:37.915Z,10.47
2019-04-04T07:24:07.636Z,11.73
2019-04-04T07:26:37.180Z,11.77
2019-04-04T07:29:06.807Z,10.60
2019-04-04T07:31:38.301Z,10.27
2019-04-04T07:34:07.811Z,9.97
2019-04-04T07:36:37.315Z,10.33
2019-04-04T07:39:07.111Z,12.23
2019-04-04T07:41:40.175Z,11.60
2019-04-04T07:44:08.000Z,10.68
2019-04-04T07:46:40.906Z,9.73
2019-04-04T07:49:08.796Z,10.67
2019-04-04T07:51:38.407Z,13.47
2019-04-04T07:54:08.120Z,10.28
2019-04-04T07:56:38.596Z,10.30
2019-04-04T07:59:08.150Z,11.63
2019-04-04T08:01:45.711Z,10.70
2019-04-04T08:04:09.523Z,11.20
2019-04-04T08:06:39.153Z,11.27
2019-04-04T08:09:08.760Z,10.43
2019-04-04T08:11:38.355Z,10.27
2019-04-04T08:14:07.983Z,10.87
2019-04-04T08:16:38.477Z,11.38
2019-04-04T08:19:08.095Z,12.40
2019-04-04T08:21:37.625Z,11.12
2019-04-04T08:24:07.174Z,11.80
2019-04-04T08:26:36.781Z,10.67
2019-04-04T08:29:06.401Z,11.20
2019-04-04T08:31:36.058Z,13.25
2019-04-04T08:34:05.985Z,11.83
2019-04-04T08:36:36.033Z,12.67
2019-04-04T08:39:08.988Z,11.70
2019-04-04T08:41:38.710Z,11.50
2019-04-04T08:44:08.428Z,10.97
2019-04-04T08:46:38.229Z,11.63
2019-04-04T08:49:07.746Z,11.80
2019-04-04T08:51:37.311Z,10.87
2019-04-04T08:54:07.326Z,10.77
2019-04-04T08:56:36.930Z,12.73
2019-04-04T08:59:06.600Z,12.00
2019-04-04T09:01:36.231Z,13.85
2019-04-04T09:04:05.845Z,13.27
2019-04-04T09:06:35.468Z,11.60
2019-04-04T09:09:06.435Z,10.63
2019-04-04T09:11:36.283Z,10.72
2019-04-04T09:14:05.916Z,12.17
2019-04-04T09:16:35.586Z,11.70
2019-04-04T09:19:05.253Z,11.20
2019-04-04T09:21:34.874Z,12.40
2019-04-04T09:24:04.629Z,12.30
2019-04-04T09:26:34.245Z,13.00
2019-04-04T09:29:03.961Z,13.20
2019-04-04T09:31:33.603Z,11.90
2019-04-04T09:34:03.267Z,10.97
2019-04-04T09:36:32.805Z,12.90
2019-04-04T09:39:02.675Z,12.67
2019-04-04T09:41:32.510Z,12.77
2019-04-04T09:44:05.838Z,13.32
2019-04-04T09:46:34.671Z,13.53
2019-04-04T09:49:04.625Z,14.23
2019-04-04T09:51:34.174Z,11.30
2019-04-04T09:54:03.775Z,12.90
2019-04-04T09:56:33.374Z,13.00
2019-04-04T09:59:02.952Z,13.47
2019-04-04T10:01:32.775Z,12.30
2019-04-04T10:04:02.429Z,11.53
2019-04-04T10:06:33.136Z,11.70
2019-04-04T10:09:15.110Z,12.80
2019-04-04T10:11:35.386Z,12.27
2019-04-04T10:14:05.134Z,10.98
2019-04-04T10:16:34.842Z,11.67
2019-04-04T10:19:04.490Z,12.63
2019-04-04T10:21:34.101Z,12.90
2019-04-04T10:24:03.686Z,12.27
2019-04-04T10:26:33.227Z,14.37
2019-04-04T10:29:02.854Z,15.70
2019-04-04T10:31:32.514Z,14.53
2019-04-04T10:34:02.093Z,13.00
2019-04-04T10:36:31.609Z,11.53
2019-04-04T10:39:01.259Z,12.57
2019-04-04T10:41:32.680Z,12.30
2019-04-04T10:44:04.020Z,14.73
2019-04-04T10:46:33.542Z,14.20
2019-04-04T10:49:03.165Z,13.83
2019-04-04T10:51:32.696Z,10.70
2019-04-04T10:54:03.347Z,12.73
2019-04-04T10:56:32.865Z,12.33
2019-04-04T10:59:02.490Z,14.73
2019-04-04T11:01:32.066Z,10.43
2019-04-04T11:04:01.626Z,14.20
2019-04-04T11:06:31.226Z,13.00
2019-04-04T11:09:01.887Z,14.07
2019-04-04T11:11:33.212Z,13.13
2019-04-04T11:14:04.911Z,12.50
2019-04-04T11:16:34.533Z,14.73
2019-04-04T11:19:04.506Z,13.93
2019-04-04T11:21:34.188Z,14.10
2019-04-04T11:24:04.183Z,12.10
2019-04-04T11:26:33.712Z,12.70
2019-04-04T11:29:03.430Z,13.20
2019-04-04T11:31:33.060Z,14.30
2019-04-04T11:34:03.899Z,14.47
2019-04-04T11:36:33.358Z,13.75
2019-04-04T11:39:04.602Z,12.50
2019-04-04T11:41:34.454Z,13.00
2019-04-04T11:44:04.898Z,12.07
2019-04-04T11:46:34.540Z,13.55
2019-04-04T11:49:05.582Z,12.70
2019-04-04T11:51:35.222Z,14.53
2019-04-04T11:54:04.816Z,13.13
2019-04-04T11:56:34.446Z,12.78
2019-04-04T11:59:04.034Z,13.17
2019-04-04T12:01:35.301Z,11.90
2019-04-04T12:04:04.909Z,12.03
2019-04-04T12:06:34.544Z,12.57
2019-04-04T12:09:05.809Z,11.10
2019-04-04T12:11:35.466Z,11.87
2019-04-04T12:14:05.490Z,11.60
2019-04-04T12:16:35.080Z,11.37
2019-04-04T12:19:04.783Z,12.43
2019-04-04T12:21:34.532Z,11.77
2019-04-04T12:24:04.154Z,11.97
2019-04-04T12:26:33.856Z,12.27
2019-04-04T12:29:03.447Z,11.87
2019-04-04T12:31:33.105Z,12.10
2019-04-04T12:34:04.014Z,10.80
2019-04-04T12:36:33.464Z,13.90
2019-04-04T12:39:03.434Z,11.87
2019-04-04T12:41:34.578Z,11.40
2019-04-04T12:44:06.113Z,12.07
2019-04-04T12:46:35.746Z,11.30
2019-04-04T12:49:05.391Z,10.60
2019-04-04T12:51:34.934Z,10.37
2019-04-04T12:54:04.615Z,11.77
2019-04-04T12:56:34.197Z,11.90
2019-04-04T12:59:03.769Z,10.27
2019-04-04T13:01:33.378Z,10.07
2019-04-04T13:04:02.920Z,10.95
2019-04-04T13:06:32.480Z,10.33
2019-04-04T13:09:03.858Z,12.30
2019-04-04T13:11:34.062Z,9.15
2019-04-04T13:14:05.350Z,11.40
2019-04-04T13:16:34.944Z,11.33
2019-04-04T13:19:04.613Z,12.27
2019-04-04T13:21:34.256Z,11.07
2019-04-04T13:24:03.880Z,9.00
2019-04-04T13:26:33.490Z,12.03
2019-04-04T13:29:04.163Z,10.70
2019-04-04T13:31:33.742Z,10.70
2019-04-04T13:34:03.438Z,9.83
2019-04-04T13:36:33.077Z,9.15
2019-04-04T13:39:02.715Z,10.25
2019-04-04T13:41:33.028Z,9.93
2019-04-04T13:44:03.125Z,10.10
2019-04-04T13:46:32.729Z,9.68
2019-04-04T13:49:02.879Z,10.73
2019-04-04T13:51:32.405Z,10.30
2019-04-04T13:54:03.099Z,10.80
2019-04-04T13:56:32.660Z,12.43
2019-04-04T13:59:05.689Z,12.70
2019-04-04T14:01:33.517Z,11.30
2019-04-04T14:04:03.209Z,13.72
2019-04-04T14:06:32.825Z,11.63
2019-04-04T14:09:02.485Z,12.50
2019-04-04T14:11:33.612Z,12.93
2019-04-04T14:14:03.261Z,11.90
2019-04-04T14:16:32.870Z,12.33
2019-04-04T14:19:03.768Z,11.03
2019-04-04T14:21:34.517Z,11.20
2019-04-04T14:26:46.217Z,13.53
2019-04-04T14:29:26.583Z,10.45
2019-04-04T14:31:47.259Z,12.47
2019-04-04T14:34:16.821Z,10.18
2019-04-04T14:36:46.363Z,10.47
2019-04-04T14:39:16.327Z,10.75
2019-04-04T14:41:46.268Z,11.30
2019-04-04T14:44:16.096Z,10.95
2019-04-04T14:46:46.185Z,10.85
2019-04-04T14:49:16.098Z,11.15
2019-04-04T14:51:46.181Z,12.03
2019-04-04T14:54:16.212Z,11.63
2019-04-04T14:56:46.164Z,11.50
2019-04-04T14:59:16.397Z,11.73
2019-04-04T15:01:46.173Z,11.40
2019-04-04T15:04:16.695Z,11.10
2019-04-04T15:06:46.364Z,11.30
2019-04-04T15:09:16.252Z,11.60
2019-04-04T15:11:46.186Z,11.30
2019-04-04T15:14:16.323Z,11.93
2019-04-04T15:16:46.317Z,11.18
2019-04-04T15:19:16.585Z,11.18
2019-04-04T15:21:46.424Z,14.60
2019-04-04T15:24:16.327Z,12.80
2019-04-04T15:26:46.452Z,12.07
2019-04-04T15:29:16.377Z,11.70
2019-04-04T15:31:46.646Z,11.75
2019-04-04T15:34:17.167Z,11.57
2019-04-04T15:36:47.069Z,13.43
2019-04-04T15:39:17.172Z,13.35
2019-04-04T15:41:47.906Z,14.15
2019-04-04T15:44:18.452Z,13.80
2019-04-04T15:46:48.095Z,11.60
2019-04-04T15:49:18.117Z,13.18
2019-04-04T15:51:48.104Z,9.23
2019-04-04T15:54:18.165Z,12.13
2019-04-04T15:56:48.157Z,14.00
2019-04-04T15:59:18.229Z,13.53
2019-04-04T16:01:47.834Z,13.90
2019-04-04T16:04:17.442Z,11.50
2019-04-04T16:06:47.109Z,11.47
2019-04-04T16:09:16.721Z,14.60
2019-04-04T16:11:49.686Z,13.23
2019-04-04T16:14:17.524Z,13.65
2019-04-04T16:16:47.262Z,13.30
2019-04-04T16:19:16.878Z,14.73
2019-04-04T16:21:46.535Z,11.27
2019-04-04T16:24:16.245Z,14.77
2019-04-04T16:26:45.907Z,13.70
2019-04-04T16:29:15.479Z,13.63
2019-04-04T16:31:45.155Z,14.57
2019-04-04T16:34:14.721Z,13.47
2019-04-04T16:36:44.427Z,15.37
2019-04-04T16:39:14.197Z,15.23
2019-04-04T16:41:43.728Z,12.90
2019-04-04T16:44:13.231Z,12.20
2019-04-04T16:46:42.776Z,15.30
2019-04-04T16:49:12.345Z,14.47
2019-04-04T16:51:41.968Z,13.87
2019-04-04T16:54:11.626Z,13.88
2019-04-04T16:56:41.503Z,17.87
2019-04-04T16:59:11.213Z,15.13
2019-04-04T17:01:40.911Z,16.07
2019-04-04T17:04:10.725Z,15.30
2019-04-04T17:06:40.312Z,13.50
2019-04-04T17:09:10.100Z,12.57
2019-04-04T17:11:39.776Z,12.55
2019-04-04T17:14:09.480Z,12.23
2019-04-04T17:16:39.033Z,13.23
2019-04-04T17:19:08.635Z,13.20
2019-04-04T17:21:38.354Z,16.30
2019-04-04T17:24:07.974Z,12.17
2019-04-04T17:26:37.664Z,14.93
2019-04-04T17:29:07.234Z,13.17
2019-04-04T17:31:36.920Z,14.47
2019-04-04T17:34:06.520Z,14.10
2019-04-04T17:36:36.357Z,13.60
2019-04-04T17:39:08.681Z,12.50
2019-04-04T17:41:38.287Z,12.97
2019-04-04T17:44:07.923Z,14.03
2019-04-04T17:46:37.919Z,12.83
2019-04-04T17:49:09.006Z,15.20
2019-04-04T17:51:38.886Z,14.60
2019-04-04T17:54:08.381Z,15.50
2019-04-04T17:56:37.962Z,16.57
2019-04-04T17:59:07.541Z,15.00
2019-04-04T18:01:37.157Z,15.20
2019-04-04T18:04:06.894Z,15.03
2019-04-04T18:06:40.503Z,14.70
2019-04-04T18:09:09.002Z,15.17
2019-04-04T18:11:40.111Z,13.00
2019-04-04T18:14:09.697Z,16.10
2019-04-04T18:16:39.247Z,14.70
2019-04-04T18:19:08.797Z,14.77
2019-04-04T18:21:38.371Z,15.13
2019-04-04T18:24:07.935Z,17.10
2019-04-04T18:26:37.664Z,14.83
2019-04-04T18:29:07.308Z,17.30
2019-04-04T18:31:36.941Z,16.00
2019-04-04T18:34:08.309Z,15.80
2019-04-04T18:36:38.252Z,14.90
2019-04-04T18:39:08.433Z,16.53
2019-04-04T18:41:38.672Z,15.70
2019-04-04T18:44:09.356Z,15.67
2019-04-04T18:46:38.854Z,15.37
2019-04-04T18:49:08.464Z,17.10
2019-04-04T18:51:39.674Z,15.93
2019-04-04T18:54:09.248Z,15.60
2019-04-04T18:56:38.770Z,14.73
2019-04-04T18:59:08.446Z,16.80
2019-04-04T19:01:37.933Z,14.07
2019-04-04T19:04:07.597Z,13.97
2019-04-04T19:06:37.301Z,15.73
2019-04-04T19:09:15.240Z,14.53
2019-04-04T19:11:41.397Z,13.77
2019-04-04T19:14:11.012Z,17.40
2019-04-04T19:16:40.560Z,13.80
2019-04-04T19:19:10.275Z,15.00
2019-04-04T19:21:39.858Z,14.68
2019-04-04T19:24:09.430Z,14.90
2019-04-04T19:26:39.142Z,17.30
2019-04-04T19:29:08.777Z,16.47
2019-04-04T19:31:38.414Z,17.50
2019-04-04T19:34:07.986Z,15.77
2019-04-04T19:36:37.573Z,14.63
2019-04-04T19:39:09.951Z,16.42
2019-04-04T19:41:39.564Z,14.87
2019-04-04T19:44:09.278Z,13.13
2019-04-04T19:46:39.050Z,13.53
2019-04-04T19:49:08.582Z,16.23
2019-04-04T19:51:38.186Z,15.03
2019-04-04T19:54:07.726Z,16.83
2019-04-04T19:56:37.530Z,15.00
2019-04-04T19:59:07.323Z,17.40
2019-04-04T20:01:37.565Z,16.83
2019-04-04T20:04:07.227Z,17.07
2019-04-04T20:06:36.825Z,17.73
2019-04-04T20:09:07.515Z,17.75
2019-04-04T20:11:37.604Z,19.13
2019-04-04T20:14:07.145Z,14.50
2019-04-04T20:16:36.849Z,17.17
2019-04-04T20:19:06.350Z,19.53
2019-04-04T20:21:36.975Z,13.60
2019-04-04T20:24:06.478Z,17.10
2019-04-04T20:26:36.093Z,16.43
2019-04-04T20:29:06.230Z,19.90
2019-04-04T20:31:35.861Z,16.63
2019-04-04T20:34:06.183Z,20.00
2019-04-04T20:36:36.059Z,17.15
2019-04-04T20:39:07.501Z,16.97
2019-04-04T20:41:37.038Z,17.40
2019-04-04T20:44:06.967Z,17.30
2019-04-04T20:46:36.616Z,18.30
2019-04-04T20:49:06.233Z,19.27
2019-04-04T20:51:35.856Z,16.47
2019-04-04T20:54:08.317Z,19.02
2019-04-04T20:56:37.948Z,20.10
2019-04-04T20:59:07.534Z,18.60
2019-04-04T21:01:37.213Z,17.50
2019-04-04T21:04:06.791Z,16.30
2019-04-04T21:06:36.335Z,14.97
2019-04-04T21:09:07.974Z,15.93
2019-04-04T21:11:37.535Z,17.50
2019-04-04T21:14:07.153Z,18.00
2019-04-04T21:16:36.743Z,16.73
2019-04-04T21:19:06.248Z,16.60
2019-04-04T21:21:35.848Z,17.98
2019-04-04T21:24:05.521Z,16.87
2019-04-04T21:26:35.115Z,18.60
2019-04-04T21:29:04.737Z,15.38
2019-04-04T21:31:34.333Z,17.02
2019-04-04T21:34:03.954Z,18.10
2019-04-04T21:36:33.520Z,16.27
2019-04-04T21:39:03.576Z,17.40
2019-04-04T21:41:33.543Z,17.23
2019-04-04T21:44:08.777Z,17.50
2019-04-04T21:46:34.402Z,18.90
2019-04-04T21:49:04.150Z,14.80
2019-04-04T21:51:33.682Z,15.70
2019-04-04T21:54:04.594Z,17.80
2019-04-04T21:56:34.147Z,15.60
2019-04-04T21:59:03.737Z,17.00
2019-04-04T22:01:34.342Z,17.63
2019-04-04T22:04:04.012Z,16.80
2019-04-04T22:06:33.608Z,16.53
2019-04-04T22:09:05.179Z,18.55
2019-04-04T22:11:36.329Z,18.40
2019-04-04T22:14:05.896Z,20.72
2019-04-04T22:16:38.198Z,18.50
2019-04-04T22:19:06.669Z,19.87
2019-04-04T22:21:36.198Z,23.03
2019-04-04T22:24:07.229Z,19.93
2019-04-04T22:26:36.771Z,20.02
2019-04-04T22:29:06.524Z,20.80
2019-04-04T22:31:36.104Z,21.67
2019-04-04T22:34:05.737Z,19.57
2019-04-04T22:36:35.306Z,22.23
2019-04-04T22:39:07.512Z,20.37
2019-04-04T22:41:37.144Z,20.02
2019-04-04T22:44:06.893Z,19.17
2019-04-04T22:46:36.435Z,17.47
2019-04-04T22:49:05.959Z,20.90
2019-04-04T22:51:35.475Z,18.27
2019-04-04T22:54:05.097Z,20.67
2019-04-04T22:56:34.616Z,21.13
2019-04-04T22:59:04.292Z,20.60
2019-04-04T23:01:33.865Z,23.80
2019-04-04T23:04:04.634Z,22.33
2019-04-04T23:06:34.275Z,19.80
2019-04-04T23:09:06.518Z,23.23
2019-04-04T23:11:36.231Z,21.97
2019-04-04T23:14:05.794Z,22.70
2019-04-04T23:16:35.346Z,23.70
2019-04-04T23:19:04.943Z,21.73
2019-04-04T23:21:34.566Z,22.67
2019-04-04T23:24:04.156Z,19.10
2019-04-04T23:26:33.801Z,20.83
2019-04-04T23:29:04.011Z,20.93
2019-04-04T23:31:33.619Z,19.87
2019-04-04T23:34:03.176Z,20.10
2019-04-04T23:36:35.030Z,21.87
2019-04-04T23:39:05.003Z,20.57
2019-04-04T23:41:35.428Z,21.90
2019-04-04T23:44:05.156Z,19.30
2019-04-04T23:46:34.648Z,19.50
2019-04-04T23:49:04.379Z,19.77
2019-04-04T23:51:33.963Z,19.63
2019-04-04T23:54:03.897Z,20.08
2019-04-04T23:56:33.453Z,20.63
2019-04-04T23:59:03.086Z,16.67
